Estación Meteorológica Peña el Pijo (Robertgarden) [ 07/19/18 09:34:10 CEST ]

Fecha Hora Presion(HPa) Temp (°C) Humedad % Rocio (°C) Viento ( m/s) Direccion Lluvia 1Hora(mm) Lluvia 24H(mm) LLuvia Total(mm)
2017-Dec-18 01:01:43 1018.400 -3.4 78 -6.7         21.23
2017-Dec-18 02:03:55 1018.200 -3.8 79 -6.9         21.23
2017-Dec-18 03:01:44 1018.300 -4.2 79 -7.3         21.23
2017-Dec-18 04:01:45 1018.200 -4.1 80 -7.0         21.23
2017-Dec-18 05:01:39 1017.500 -3.6 81 -6.4         21.23
2017-Dec-18 06:01:38 1017.100 -3.9 81 -6.7         21.23
2017-Dec-18 07:01:38 1016.900 -3.9 82 -6.5         21.23
2017-Dec-18 08:01:36 1017.500 -4.2 83 -6.6         21.23
2017-Dec-18 09:01:40 1017.500 -4.0 83 -6.4         21.23
2017-Dec-18 10:01:33 1016.900 0.4 84 -2.0         21.23
2017-Dec-18 11:01:14 1017.500 5.2 73 0.9         21.23
2017-Dec-18 12:01:44 1017.700 8.3 57 0.2         21.23
2017-Dec-18 13:01:59 1017.100 8.0 51 -1.6         21.23
2017-Dec-18 14:01:37 1015.900 9.9 46 -1.2         21.23
2017-Dec-18 15:01:55 1014.800 11.3 43 -0.9 1.3 SSW     21.23
2017-Dec-18 16:01:49 1014.200 11.1 44 -0.8         21.23
2017-Dec-18 17:01:47 1013.700 8.9 46 -2.2         21.23
2017-Dec-18 18:01:49 1013.800 6.7 52 -2.5         21.23
2017-Dec-18 19:01:51 1013.800 4.4 60 -2.7         21.23
2017-Dec-18 20:01:47 1014.100 3.6 63 -2.8         21.23
2017-Dec-18 21:01:43 1014.100 1.9 67 -3.6         21.23
2017-Dec-18 22:01:41 1013.900 1.8 71 -2.9         21.23
2017-Dec-18 23:01:44 1012.900 4.1 73 -0.3         21.23

Temperatura Máxima:11°    Temperatura Mínima:-4°
Presión Máxima:1018.400 Hpa    Presión Mínima:1012.900 Hpa


Volver